메인 페이지
METAR-TAF:

METAR-TAF

공항 :

에드먼턴, 앨버타, 캐나다

위도: 53-18N, 경도: 113-35W, 고도: 715m

현재 날씨관측

예보는 10분 전, 15:10시(UTC)에 발표되었습니다.
남동13kt
온도 -14°C
습도 78%
기압 1014 hPa
시정: 3.2km
고도 2800ft 상공 구름 조금
약한눈

METAR: CYEG 111510Z 13013KT 2SM -SN FEW028 M14/M17 A2993 RMK SN7SC1 SLP192

시각: 08:20 (15:20 UTC)

예보

예보는 42분 전, 14:38시(UTC)에 발표되었습니다.
예보 대상 시간: 11일 15시부터 12일 12시까지 (UTC)
동남동12kt
시정: 9.7km
고도 1000ft 상공 구름 보통
고도 2500ft 상공 흐림
약한눈
일시적
11일 15시부터 12일 03시까지 (UTC)
시정: 3.2km
고도 1200ft 상공 흐림
약한눈
12일 0300시부터 (UTC)
남동12kt
시정: 10km
고도 1500ft 상공 흐림
약한눈
일시적
12일 03시부터 12일 12시까지 (UTC)
시정: 6.4km
고도 800ft 상공 흐림
약한눈

TAF: CYEG 111438Z 1115/1212 12012KT 6SM -SN SCT010 OVC025 TEMPO 1115/1203 2SM -SN OVC012 FM120300 14012KT P6SM -SN OVC015 TEMPO 1203/1212 4SM -SN OVC008 RMK NXT FCST BY 111800Z

4,000개 이상의 공항 관측 자료 및 예보 (METAR 및 TAF 보고).

지도상에서 검색 가능한 기상관측소가 노란 점과 빨간 점으로 표시되어 있습니다.

기상관측소 명을 보려면 표시 위로 마우스를 이동하세요.

날씨 관측과 예보를 보려면 클릭하세요.

지도 변경 : 확대하려면 엑스 표시가 있는 녹색 버튼, 축소하려면 빼기 표시가 있는 녹색 버튼, 다음 페이지의 지도를 보려면 녹색 화살표를 클릭하세요.


METAR-TAF: